Time;durP1;ratioP1;P1;durP2;ratioP2;P2;SDS_P1;SDS_P2;PMS_P1;PMS_P2;Temp;Humidity;BMP_temperature;BMP_pressure;BME280_temperature;BME280_humidity;BME280_pressure;Samples;Min_cycle;Max_cycle;Signal;HPM_P1;HPM_P2
2023/09/18 00:01:55;;;;;;;0.20;0.20;;;17.50;99.90;;;;;;4972659;28;20089;-65
2023/09/18 00:04:20;;;;;;;0.30;0.30;;;17.50;99.90;;;;;;4972384;28;20039;-65
2023/09/18 00:06:46;;;;;;;0.65;0.63;;;17.50;99.90;;;;;;4971706;28;20039;-65
2023/09/18 00:09:13;;;;;;;0.30;0.30;;;17.50;99.90;;;;;;4970902;28;20045;-65
2023/09/18 00:11:39;;;;;;;0.50;0.50;;;17.40;99.90;;;;;;4976117;28;20128;-65
2023/09/18 00:14:05;;;;;;;0.30;0.30;;;17.40;99.90;;;;;;4975135;28;20038;-65
2023/09/18 00:16:32;;;;;;;0.55;0.52;;;17.40;99.90;;;;;;4976015;28;20553;-65
2023/09/18 00:18:58;;;;;;;0.60;0.60;;;17.40;99.90;;;;;;4973606;28;20066;-65
2023/09/18 00:21:25;;;;;;;0.52;0.52;;;17.40;99.90;;;;;;4974268;28;20470;-65
2023/09/18 00:23:51;;;;;;;0.43;0.43;;;17.40;99.90;;;;;;4958176;28;20379;-65
2023/09/18 00:26:17;;;;;;;0.47;0.32;;;17.50;99.90;;;;;;4975098;28;20066;-65
2023/09/18 00:28:42;;;;;;;0.30;0.28;;;17.50;99.90;;;;;;4956808;28;20047;-65
2023/09/18 00:31:08;;;;;;;0.52;0.28;;;17.40;99.90;;;;;;4974018;28;20035;-65
2023/09/18 00:33:33;;;;;;;0.90;0.35;;;17.40;99.90;;;;;;4974587;28;20087;-65
2023/09/18 00:35:59;;;;;;;0.95;0.90;;;17.40;99.90;;;;;;4958295;28;20486;-65
2023/09/18 00:38:25;;;;;;;0.43;0.43;;;17.40;99.90;;;;;;4956258;28;20089;-65
2023/09/18 00:40:50;;;;;;;0.10;0.10;;;17.40;99.90;;;;;;4975012;28;20035;-65
2023/09/18 00:43:17;;;;;;;0.00;0.00;;;17.40;99.90;;;;;;4973416;28;20078;-65
2023/09/18 00:45:45;;;;;;;0.00;0.00;;;17.40;99.90;;;;;;4973513;28;20062;-65
2023/09/18 00:48:12;;;;;;;0.10;0.10;;;17.40;99.90;;;;;;4974353;28;20122;-65
2023/09/18 00:50:38;;;;;;;0.35;0.35;;;17.30;99.90;;;;;;4975593;28;20051;-65
2023/09/18 00:53:05;;;;;;;0.68;0.68;;;17.30;99.90;;;;;;4975283;28;20049;-65
2023/09/18 00:55:32;;;;;;;0.43;0.43;;;17.30;99.90;;;;;;4955246;28;20049;-65
2023/09/18 00:57:58;;;;;;;0.00;0.00;;;17.30;99.90;;;;;;4957580;28;20600;-65
2023/09/18 01:00:23;;;;;;;0.32;0.30;;;17.30;99.90;;;;;;4975220;28;20074;-65
2023/09/18 01:02:49;;;;;;;0.30;0.30;;;17.30;99.90;;;;;;4972612;28;20082;-65
2023/09/18 01:05:19;;;;;;;0.10;0.10;;;17.20;99.90;;;;;;4974964;28;20502;-65
2023/09/18 01:07:46;;;;;;;0.63;0.63;;;17.20;99.90;;;;;;4975320;28;20054;-64
2023/09/18 01:10:16;;;;;;;0.30;0.30;;;17.20;99.90;;;;;;4974480;28;20053;-65
2023/09/18 01:13:07;;;;;;;0.55;0.40;;;17.20;99.90;;;;;;4973926;28;20487;-65
2023/09/18 01:15:44;;;;;;;0.65;0.65;;;17.20;99.90;;;;;;4969587;28;20058;-65
2023/09/18 01:18:09;;;;;;;0.55;0.55;;;17.20;99.90;;;;;;4973428;28;20038;-65
2023/09/18 01:20:35;;;;;;;1.25;1.15;;;17.20;99.90;;;;;;4973749;28;20517;-64
2023/09/18 01:23:01;;;;;;;1.95;0.47;;;17.20;99.90;;;;;;4972204;28;20039;-65
2023/09/18 01:25:26;;;;;;;0.60;0.60;;;17.20;99.90;;;;;;4974287;28;20489;-65
2023/09/18 01:27:52;;;;;;;0.10;0.10;;;17.30;99.90;;;;;;4974909;28;20549;-65
2023/09/18 01:30:18;;;;;;;1.90;1.52;;;17.30;99.90;;;;;;4974000;28;20395;-65
2023/09/18 01:32:46;;;;;;;0.52;0.52;;;17.30;99.90;;;;;;4955221;28;20078;-65
2023/09/18 01:35:13;;;;;;;0.40;0.32;;;17.30;99.90;;;;;;4974616;28;20056;-65
2023/09/18 01:37:40;;;;;;;0.32;0.32;;;17.30;99.90;;;;;;4974069;28;20057;-65
2023/09/18 01:40:07;;;;;;;0.75;0.70;;;17.30;99.90;;;;;;4972725;28;20042;-65
2023/09/18 01:42:34;;;;;;;0.50;0.50;;;17.40;99.90;;;;;;4974353;28;20138;-65
2023/09/18 01:45:00;;;;;;;0.30;0.30;;;17.30;99.90;;;;;;4971557;28;20506;-65
2023/09/18 01:47:28;;;;;;;0.52;0.43;;;17.30;99.90;;;;;;4968652;28;20055;-65
2023/09/18 01:49:55;;;;;;;0.00;0.00;;;17.30;99.90;;;;;;4956966;28;20072;-65
2023/09/18 01:52:21;;;;;;;0.75;0.75;;;17.40;99.90;;;;;;4956116;28;20081;-65
2023/09/18 01:54:47;;;;;;;0.00;0.00;;;17.30;99.90;;;;;;4974197;28;20043;-65
2023/09/18 01:57:13;;;;;;;0.20;0.20;;;17.30;99.90;;;;;;4972221;28;20053;-65
2023/09/18 01:59:38;;;;;;;0.15;0.15;;;17.30;99.90;;;;;;4954036;28;20043;-65
2023/09/18 02:02:07;;;;;;;0.55;0.55;;;17.30;99.90;;;;;;4973983;28;20900;-65
2023/09/18 02:04:33;;;;;;;0.90;0.90;;;17.30;99.90;;;;;;4973430;28;20097;-65
2023/09/18 02:06:59;;;;;;;0.38;0.38;;;17.30;99.90;;;;;;4972367;28;20446;-65
2023/09/18 02:09:24;;;;;;;0.50;0.50;;;17.30;99.90;;;;;;4956308;28;20051;-65
2023/09/18 02:11:50;;;;;;;5.28;1.45;;;17.30;99.90;;;;;;4973035;28;20502;-65
2023/09/18 02:14:15;;;;;;;0.22;0.22;;;17.40;99.90;;;;;;4972029;28;20556;-65
2023/09/18 02:16:43;;;;;;;0.30;0.30;;;17.40;99.90;;;;;;4956503;28;20039;-65
2023/09/18 02:19:09;;;;;;;0.22;0.22;;;17.40;99.90;;;;;;4955552;28;20133;-65
2023/09/18 02:21:35;;;;;;;0.15;0.15;;;17.40;99.90;;;;;;4954200;28;20057;-65
2023/09/18 02:24:01;;;;;;;0.20;0.20;;;17.40;99.90;;;;;;4973406;28;20043;-65
2023/09/18 02:26:27;;;;;;;0.63;0.63;;;17.40;99.90;;;;;;4971814;28;20442;-65
2023/09/18 02:28:54;;;;;;;0.15;0.15;;;17.40;99.90;;;;;;4973394;28;20038;-65
2023/09/18 02:31:23;;;;;;;0.45;0.45;;;17.40;99.90;;;;;;4973488;28;20096;-65
2023/09/18 02:33:48;;;;;;;0.73;0.68;;;17.40;99.90;;;;;;4970780;28;20501;-65
2023/09/18 02:36:14;;;;;;;0.63;0.63;;;17.40;99.90;;;;;;4956073;28;20070;-65
2023/09/18 02:38:40;;;;;;;0.43;0.43;;;17.40;99.90;;;;;;4954399;28;20055;-65
2023/09/18 02:41:05;;;;;;;0.30;0.30;;;17.40;99.90;;;;;;4972363;28;20046;-65
2023/09/18 02:43:31;;;;;;;2.65;1.85;;;17.40;99.90;;;;;;4973533;28;20050;-65
2023/09/18 02:45:57;;;;;;;0.00;0.00;;;17.40;99.90;;;;;;4955759;28;20043;-65
2023/09/18 02:48:22;;;;;;;0.00;0.00;;;17.40;99.90;;;;;;4970444;28;20062;-65
2023/09/18 02:50:48;;;;;;;0.85;0.65;;;17.40;99.90;;;;;;4973285;28;20105;-65
2023/09/18 02:53:19;;;;;;;0.30;0.30;;;17.40;99.90;;;;;;4955778;28;20050;-65
2023/09/18 02:55:49;;;;;;;0.00;0.00;;;17.40;99.90;;;;;;4970411;28;20045;-65
2023/09/18 02:58:16;;;;;;;0.20;0.20;;;17.40;99.90;;;;;;4972897;28;20049;-65
2023/09/18 03:00:45;;;;;;;0.10;0.10;;;17.50;99.90;;;;;;4970625;28;20043;-65
2023/09/18 03:03:11;;;;;;;0.10;0.10;;;17.50;99.90;;;;;;4972781;28;20122;-65
2023/09/18 03:05:38;;;;;;;0.28;0.28;;;17.40;99.90;;;;;;4973492;28;20046;-65
2023/09/18 03:08:03;;;;;;;0.20;0.20;;;17.50;99.90;;;;;;4955674;28;20065;-65
2023/09/18 03:10:36;;;;;;;0.25;0.25;;;17.40;99.90;;;;;;4971487;28;20149;-66
2023/09/18 03:13:02;;;;;;;1.35;0.30;;;17.50;99.90;;;;;;4954221;28;20059;-65
2023/09/18 03:15:28;;;;;;;0.75;0.75;;;17.50;99.90;;;;;;4970994;28;20046;-65
2023/09/18 03:17:54;;;;;;;1.65;1.35;;;17.50;99.90;;;;;;4973294;28;20046;-65
2023/09/18 03:20:23;;;;;;;1.70;0.40;;;17.50;99.90;;;;;;4955883;28;20051;-65
2023/09/18 03:22:54;;;;;;;0.38;0.38;;;17.50;99.90;;;;;;4972426;28;20097;-65
2023/09/18 03:25:19;;;;;;;0.30;0.30;;;17.50;99.90;;;;;;4953831;28;20553;-65
2023/09/18 03:27:45;;;;;;;0.10;0.10;;;17.50;99.90;;;;;;4972823;28;20083;-65
2023/09/18 03:30:17;;;;;;;0.22;0.20;;;17.50;99.90;;;;;;4971954;28;20489;-65
2023/09/18 03:32:43;;;;;;;0.30;0.30;;;17.50;99.90;;;;;;4971856;28;20482;-65
2023/09/18 03:35:17;;;;;;;1.52;1.42;;;17.50;99.90;;;;;;4972654;28;20130;-65
2023/09/18 03:37:47;;;;;;;0.22;0.22;;;17.50;99.90;;;;;;4972169;28;20043;-65
2023/09/18 03:40:13;;;;;;;0.00;0.00;;;17.50;99.90;;;;;;4970607;28;20514;-64
2023/09/18 03:42:39;;;;;;;0.00;0.00;;;17.60;99.90;;;;;;4972760;28;20465;-65
2023/09/18 03:45:09;;;;;;;0.10;0.10;;;17.50;99.90;;;;;;4971891;28;20113;-65
2023/09/18 03:47:35;;;;;;;0.30;0.30;;;17.60;99.90;;;;;;4958689;28;20066;-65
2023/09/18 03:50:02;;;;;;;0.05;0.05;;;17.60;99.90;;;;;;4973901;28;20034;-65
2023/09/18 03:52:28;;;;;;;0.08;0.08;;;17.50;99.90;;;;;;4976438;28;20038;-65
2023/09/18 03:54:53;;;;;;;0.15;0.15;;;17.50;99.90;;;;;;4976374;28;20039;-65
2023/09/18 03:57:19;;;;;;;0.20;0.20;;;17.60;99.90;;;;;;4975955;28;20122;-65
2023/09/18 03:59:44;;;;;;;0.85;0.38;;;17.50;99.90;;;;;;4974696;28;20076;-65
2023/09/18 04:02:10;;;;;;;0.00;0.00;;;17.60;99.90;;;;;;4976256;28;20050;-65
2023/09/18 04:04:36;;;;;;;0.15;0.15;;;17.60;99.90;;;;;;4973695;28;20093;-65
2023/09/18 04:07:06;;;;;;;0.55;0.50;;;17.60;99.90;;;;;;4976128;28;20462;-65
2023/09/18 04:09:31;;;;;;;0.32;0.20;;;17.60;99.90;;;;;;4974715;28;20038;-64
2023/09/18 04:11:57;;;;;;;0.00;0.00;;;17.60;99.90;;;;;;4957668;28;20054;-65
2023/09/18 04:14:23;;;;;;;0.73;0.73;;;17.60;99.90;;;;;;4976404;28;20050;-65
2023/09/18 04:16:48;;;;;;;0.52;0.30;;;17.60;99.90;;;;;;4974050;28;20051;-65
2023/09/18 04:19:14;;;;;;;0.20;0.20;;;17.60;99.90;;;;;;4972733;28;20094;-65
2023/09/18 04:21:39;;;;;;;4.22;0.55;;;17.60;99.90;;;;;;4973876;28;20051;-65
2023/09/18 04:24:05;;;;;;;0.40;0.40;;;17.60;99.90;;;;;;4958314;28;20043;-65
2023/09/18 04:26:32;;;;;;;0.10;0.10;;;17.60;99.90;;;;;;4975343;28;20042;-65
2023/09/18 04:29:00;;;;;;;0.35;0.32;;;17.60;99.90;;;;;;4974282;28;20070;-65
2023/09/18 04:31:27;;;;;;;1.13;0.30;;;17.70;99.90;;;;;;4975377;28;20042;-65
2023/09/18 04:33:53;;;;;;;0.00;0.00;;;17.70;99.90;;;;;;4957446;28;20081;-65
2023/09/18 04:36:19;;;;;;;0.00;0.00;;;17.70;99.90;;;;;;4973579;28;20510;-65
2023/09/18 04:38:45;;;;;;;0.25;0.25;;;17.70;99.90;;;;;;4975755;28;20090;-65
2023/09/18 04:41:11;;;;;;;0.05;0.05;;;17.70;99.90;;;;;;4974784;28;20053;-65
2023/09/18 04:43:41;;;;;;;0.05;0.05;;;17.70;99.90;;;;;;4956446;28;20035;-65
2023/09/18 04:46:07;;;;;;;1.10;0.75;;;17.70;99.90;;;;;;4975375;28;20054;-65
2023/09/18 04:48:33;;;;;;;0.05;0.05;;;17.70;99.90;;;;;;4973358;28;20399;-65
2023/09/18 04:50:59;;;;;;;0.20;0.20;;;17.70;99.90;;;;;;4975647;28;20046;-65
2023/09/18 04:53:25;;;;;;;1.65;1.55;;;17.80;99.90;;;;;;4972771;28;20078;-65
2023/09/18 04:55:50;;;;;;;0.20;0.20;;;17.80;99.90;;;;;;4974278;28;20442;-65
2023/09/18 04:58:19;;;;;;;0.13;0.13;;;17.80;99.90;;;;;;4975348;28;20525;-65
2023/09/18 05:00:46;;;;;;;0.38;0.20;;;17.80;99.90;;;;;;4972849;28;20473;-65
2023/09/18 05:03:12;;;;;;;0.15;0.15;;;17.90;99.90;;;;;;4974505;28;20042;-65
2023/09/18 05:05:38;;;;;;;0.13;0.13;;;17.80;99.90;;;;;;4973625;28;20047;-65
2023/09/18 05:08:09;;;;;;;0.57;0.57;;;17.80;99.90;;;;;;4973490;28;20039;-65
2023/09/18 05:10:36;;;;;;;0.22;0.22;;;17.90;99.90;;;;;;4974927;28;20066;-65
2023/09/18 05:13:02;;;;;;;0.00;0.00;;;17.90;99.90;;;;;;4974730;28;20058;-65
2023/09/18 05:15:29;;;;;;;0.30;0.30;;;17.90;99.90;;;;;;4955042;28;20039;-65
2023/09/18 05:17:57;;;;;;;0.10;0.10;;;17.90;99.90;;;;;;4974482;28;20510;-65
2023/09/18 05:20:25;;;;;;;0.25;0.25;;;17.90;99.90;;;;;;4957699;28;20074;-65
2023/09/18 05:22:54;;;;;;;1.55;0.95;;;17.90;99.90;;;;;;4980961;28;20051;-65
2023/09/18 05:25:25;;;;;;;0.10;0.10;;;17.90;99.90;;;;;;4973032;28;20070;-65
2023/09/18 05:27:56;;;;;;;0.00;0.00;;;17.90;99.90;;;;;;4957569;28;20074;-65
2023/09/18 05:30:27;;;;;;;0.82;0.30;;;17.90;99.90;;;;;;4973869;28;20520;-65
2023/09/18 05:32:54;;;;;;;0.00;0.00;;;17.90;99.90;;;;;;4955820;28;20050;-65
2023/09/18 05:35:19;;;;;;;0.10;0.10;;;17.90;99.90;;;;;;4974032;28;20514;-65
2023/09/18 05:37:45;;;;;;;0.50;0.50;;;17.90;99.90;;;;;;4956489;28;20047;-65
2023/09/18 05:40:12;;;;;;;0.10;0.10;;;17.90;99.90;;;;;;4974796;28;20105;-65
2023/09/18 05:42:45;;;;;;;0.00;0.00;;;18.00;99.90;;;;;;4971890;28;20043;-65
2023/09/18 05:45:12;;;;;;;2.63;0.52;;;18.00;99.90;;;;;;4974417;28;20050;-65
2023/09/18 05:47:38;;;;;;;0.00;0.00;;;18.00;99.90;;;;;;4972187;28;20051;-65
2023/09/18 05:50:09;;;;;;;1.13;0.25;;;18.00;99.90;;;;;;4973700;28;20038;-65
2023/09/18 05:52:35;;;;;;;0.75;0.52;;;18.00;99.90;;;;;;4980906;28;20059;-65
2023/09/18 05:55:02;;;;;;;0.50;0.50;;;18.00;99.90;;;;;;4972215;28;20094;-65
2023/09/18 05:57:27;;;;;;;0.03;0.03;;;18.10;99.90;;;;;;4973709;28;20051;-65
2023/09/18 05:59:55;;;;;;;0.85;0.43;;;18.10;99.90;;;;;;4972215;28;20061;-65
2023/09/18 06:02:21;;;;;;;0.00;0.00;;;18.10;99.90;;;;;;4973094;28;20514;-65
2023/09/18 06:04:47;;;;;;;0.88;0.45;;;18.20;99.90;;;;;;4973292;28;20085;-65
2023/09/18 06:07:13;;;;;;;0.88;0.88;;;18.20;99.90;;;;;;4954142;28;20043;-65
2023/09/18 06:09:39;;;;;;;1.00;0.90;;;18.30;99.90;;;;;;4956476;28;20046;-65
2023/09/18 06:12:05;;;;;;;0.65;0.65;;;18.30;99.90;;;;;;4955726;28;20051;-65
2023/09/18 06:14:31;;;;;;;0.30;0.30;;;18.40;99.90;;;;;;4971967;28;20490;-65
2023/09/18 06:16:57;;;;;;;0.50;0.30;;;18.40;99.90;;;;;;4973952;28;20039;-65
2023/09/18 06:19:23;;;;;;;0.55;0.52;;;18.50;99.90;;;;;;4971595;28;20562;-65
2023/09/18 06:21:48;;;;;;;0.15;0.15;;;18.50;99.90;;;;;;4972804;28;20038;-65
2023/09/18 06:24:14;;;;;;;0.65;0.65;;;18.50;99.90;;;;;;4973550;28;20106;-65
2023/09/18 06:26:40;;;;;;;0.00;0.00;;;18.50;99.90;;;;;;4972833;28;20034;-65
2023/09/18 06:29:05;;;;;;;1.92;0.95;;;18.60;99.90;;;;;;4954420;28;20050;-65
2023/09/18 06:31:31;;;;;;;0.00;0.00;;;18.60;99.90;;;;;;4965614;28;20506;-65
2023/09/18 06:33:57;;;;;;;0.10;0.10;;;18.60;99.90;;;;;;4955468;28;20050;-65
2023/09/18 06:36:22;;;;;;;0.10;0.10;;;18.60;99.90;;;;;;4973444;28;20046;-64
2023/09/18 06:38:48;;;;;;;0.10;0.10;;;18.60;99.90;;;;;;4970680;28;20039;-65
2023/09/18 06:41:14;;;;;;;0.13;0.13;;;18.60;99.90;;;;;;4973670;28;20045;-65
2023/09/18 06:43:39;;;;;;;0.40;0.40;;;18.50;99.90;;;;;;4954355;28;20478;-65
2023/09/18 06:46:07;;;;;;;0.20;0.20;;;18.50;99.90;;;;;;4955088;28;20057;-65
2023/09/18 06:48:33;;;;;;;0.10;0.10;;;18.50;99.90;;;;;;4971412;28;20050;-65
2023/09/18 06:51:00;;;;;;;0.10;0.10;;;18.50;99.90;;;;;;4972935;28;20471;-65
2023/09/18 06:53:27;;;;;;;0.00;0.00;;;18.40;99.90;;;;;;4955014;28;20137;-65
2023/09/18 06:55:53;;;;;;;0.05;0.05;;;18.40;99.90;;;;;;4965236;28;20039;-65
2023/09/18 06:58:19;;;;;;;0.00;0.00;;;18.30;99.90;;;;;;4971471;28;20042;-64
2023/09/18 07:00:45;;;;;;;1.55;1.45;;;18.30;99.90;;;;;;4972502;28;20387;-64
2023/09/18 07:03:11;;;;;;;0.57;0.57;;;18.30;99.90;;;;;;4973212;28;20070;-65
2023/09/18 07:05:37;;;;;;;0.00;0.00;;;18.30;99.90;;;;;;4955648;28;20501;-64
2023/09/18 07:08:05;;;;;;;0.00;0.00;;;18.30;99.90;;;;;;4970324;28;20039;-64
2023/09/18 07:10:32;;;;;;;0.15;0.15;;;18.30;99.90;;;;;;4973044;28;20109;-64
2023/09/18 07:12:58;;;;;;;0.22;0.20;;;18.30;99.90;;;;;;4970868;28;20054;-64
2023/09/18 07:15:24;;;;;;;1.98;0.75;;;18.30;99.90;;;;;;4972028;28;20431;-65
2023/09/18 07:17:49;;;;;;;0.00;0.00;;;18.30;99.90;;;;;;4971144;28;20097;-64
2023/09/18 07:20:15;;;;;;;0.10;0.10;;;18.30;99.90;;;;;;4971887;28;20051;-64
2023/09/18 07:22:45;;;;;;;0.10;0.10;;;18.20;99.90;;;;;;4972111;28;20050;-64
2023/09/18 07:25:11;;;;;;;0.00;0.00;;;18.20;99.90;;;;;;4971476;28;20043;-64
2023/09/18 07:27:38;;;;;;;0.00;0.00;;;18.30;99.90;;;;;;4955048;28;20145;-64
2023/09/18 07:30:04;;;;;;;0.00;0.00;;;18.20;99.90;;;;;;4972167;28;20049;-65
2023/09/18 07:32:30;;;;;;;0.00;0.00;;;18.20;99.90;;;;;;4970623;28;20042;-65
2023/09/18 07:34:56;;;;;;;0.00;0.00;;;18.30;99.90;;;;;;4955379;28;20518;-65
2023/09/18 07:37:22;;;;;;;0.00;0.00;;;18.30;99.90;;;;;;4954846;28;20054;-64
2023/09/18 07:39:48;;;;;;;0.32;0.20;;;18.30;99.90;;;;;;4970698;28;20043;-65
2023/09/18 07:42:14;;;;;;;0.00;0.00;;;18.30;99.90;;;;;;4971946;28;20055;-64
2023/09/18 07:44:40;;;;;;;1.10;1.00;;;18.30;99.90;;;;;;4970908;28;20761;-65
2023/09/18 07:47:05;;;;;;;0.05;0.05;;;18.30;99.90;;;;;;4972382;28;20059;-64
2023/09/18 07:49:31;;;;;;;1.25;1.02;;;18.30;99.90;;;;;;4972046;28;20158;-65
2023/09/18 07:51:56;;;;;;;0.00;0.00;;;18.20;99.90;;;;;;4972423;28;20049;-65
2023/09/18 07:54:22;;;;;;;0.30;0.30;;;18.30;99.90;;;;;;4970592;28;20074;-64
2023/09/18 07:56:47;;;;;;;0.10;0.10;;;18.30;99.90;;;;;;4971796;28;20413;-64
2023/09/18 07:59:14;;;;;;;0.00;0.00;;;18.30;99.90;;;;;;4970693;28;20053;-64
2023/09/18 08:01:40;;;;;;;0.08;0.08;;;18.30;99.90;;;;;;4972430;28;20434;-64
2023/09/18 08:04:06;;;;;;;0.00;0.00;;;18.30;99.90;;;;;;4971877;28;20102;-64
2023/09/18 08:06:32;;;;;;;0.20;0.20;;;18.30;99.90;;;;;;4955322;28;20047;-64
2023/09/18 08:08:58;;;;;;;0.00;0.00;;;18.30;99.90;;;;;;4953316;28;20046;-64
2023/09/18 08:11:23;;;;;;;0.38;0.38;;;18.40;99.90;;;;;;4954122;28;20054;-64
2023/09/18 08:13:49;;;;;;;0.10;0.10;;;18.40;99.90;;;;;;4972461;28;20051;-64
2023/09/18 08:16:14;;;;;;;0.30;0.30;;;18.30;99.90;;;;;;4972749;28;20140;-64
2023/09/18 08:18:41;;;;;;;0.20;0.20;;;18.40;99.90;;;;;;4969860;28;20417;-65
2023/09/18 08:21:09;;;;;;;0.28;0.28;;;18.40;99.90;;;;;;4971931;28;20047;-64
2023/09/18 08:23:36;;;;;;;0.32;0.32;;;18.40;99.90;;;;;;4970659;28;20053;-64
2023/09/18 08:26:03;;;;;;;0.05;0.05;;;18.50;99.90;;;;;;4953915;28;20043;-65
2023/09/18 08:28:30;;;;;;;0.28;0.28;;;18.50;99.90;;;;;;4970630;28;20089;-65
2023/09/18 08:30:55;;;;;;;0.00;0.00;;;18.50;99.90;;;;;;4973651;28;20050;-65
2023/09/18 08:33:21;;;;;;;0.00;0.00;;;18.50;99.90;;;;;;4975141;28;20182;-65
2023/09/18 08:35:46;;;;;;;0.10;0.10;;;18.60;99.90;;;;;;4972346;28;20402;-65
2023/09/18 08:38:14;;;;;;;0.00;0.00;;;18.60;99.90;;;;;;4975372;28;20050;-65
2023/09/18 08:40:42;;;;;;;0.10;0.10;;;18.60;99.90;;;;;;4975110;28;20073;-65
2023/09/18 08:43:09;;;;;;;0.10;0.10;;;18.60;99.90;;;;;;4973959;28;20035;-65
2023/09/18 08:45:43;;;;;;;0.00;0.00;;;18.70;99.90;;;;;;4974601;28;20038;-65
2023/09/18 08:48:09;;;;;;;0.30;0.30;;;18.70;99.90;;;;;;4975327;28;20502;-64
2023/09/18 08:50:37;;;;;;;0.00;0.00;;;18.80;99.90;;;;;;4975545;28;20046;-65
2023/09/18 08:53:04;;;;;;;0.00;0.00;;;18.80;99.90;;;;;;4972673;28;20085;-65
2023/09/18 08:55:30;;;;;;;2.28;0.35;;;18.80;99.90;;;;;;4975237;28;20039;-65
2023/09/18 08:57:59;;;;;;;0.80;0.80;;;18.90;99.90;;;;;;4975675;28;20043;-65
2023/09/18 09:00:25;;;;;;;0.03;0.03;;;18.90;99.90;;;;;;4972828;28;20097;-65
2023/09/18 09:02:52;;;;;;;0.10;0.10;;;19.00;99.90;;;;;;4957571;28;20078;-65
2023/09/18 09:05:18;;;;;;;0.20;0.20;;;19.00;99.90;;;;;;4973783;28;20039;-65
2023/09/18 09:07:43;;;;;;;0.20;0.20;;;19.10;99.90;;;;;;4974818;28;20142;-65
2023/09/18 09:10:09;;;;;;;0.43;0.30;;;19.10;99.90;;;;;;4975139;28;20090;-65
2023/09/18 09:12:58;;;;;;;0.00;0.00;;;19.10;99.90;;;;;;4973851;28;20042;-65
2023/09/18 09:15:45;;;;;;;0.00;0.00;;;19.10;99.90;;;;;;4950725;28;20125;-65
2023/09/18 09:18:12;;;;;;;0.57;0.57;;;19.20;99.90;;;;;;4957449;28;20050;-65
2023/09/18 09:20:38;;;;;;;0.30;0.30;;;19.20;99.90;;;;;;4974361;28;20038;-64
2023/09/18 09:23:05;;;;;;;0.00;0.00;;;19.20;99.90;;;;;;4972944;28;20115;-65
2023/09/18 09:25:33;;;;;;;0.73;0.73;;;19.20;99.90;;;;;;4974569;28;20125;-65
2023/09/18 09:28:00;;;;;;;0.00;0.00;;;19.20;99.90;;;;;;4974250;28;20111;-65
2023/09/18 09:30:27;;;;;;;0.20;0.20;;;19.20;99.90;;;;;;4971755;28;20047;-65
2023/09/18 09:32:55;;;;;;;0.57;0.57;;;19.30;99.90;;;;;;4974825;28;20050;-64
2023/09/18 09:35:30;;;;;;;0.32;0.32;;;19.40;99.90;;;;;;4971983;28;20047;-65
2023/09/18 09:38:00;;;;;;;0.00;0.00;;;19.60;99.90;;;;;;4974699;28;20047;-64
2023/09/18 09:40:28;;;;;;;0.60;0.60;;;19.60;99.90;;;;;;4974255;28;20062;-65
2023/09/18 09:43:00;;;;;;;0.05;0.05;;;19.70;99.90;;;;;;4971342;28;20043;-65
2023/09/18 09:45:29;;;;;;;0.10;0.10;;;19.90;99.90;;;;;;4972862;28;20050;-65
2023/09/18 09:47:55;;;;;;;1.17;0.95;;;19.80;99.90;;;;;;4955623;28;20069;-65
2023/09/18 09:50:21;;;;;;;0.17;0.17;;;19.80;99.90;;;;;;4971472;28;20054;-65
2023/09/18 09:52:49;;;;;;;0.15;0.15;;;20.10;99.90;;;;;;4974200;28;20126;-64
2023/09/18 09:55:20;;;;;;;0.32;0.32;;;19.90;99.90;;;;;;4972218;28;20042;-65
2023/09/18 09:57:52;;;;;;;0.40;0.40;;;19.90;99.90;;;;;;4973513;28;20130;-64
2023/09/18 10:00:27;;;;;;;1.75;0.63;;;19.80;99.90;;;;;;4974385;28;20053;-65
2023/09/18 10:02:58;;;;;;;2.40;0.95;;;19.90;99.90;;;;;;4971534;28;20051;-65
2023/09/18 10:05:33;;;;;;;1.02;0.32;;;19.80;99.90;;;;;;4956721;28;20398;-64
2023/09/18 10:08:02;;;;;;;8.07;3.70;;;19.90;99.90;;;;;;4954953;28;20049;-64
2023/09/18 10:10:35;;;;;;;0.10;0.10;;;19.80;99.90;;;;;;4955497;28;20117;-64
2023/09/18 10:13:07;;;;;;;3.47;1.55;;;19.80;99.90;;;;;;4974158;28;20078;-64
2023/09/18 10:15:38;;;;;;;0.90;0.90;;;19.80;99.90;;;;;;4956817;28;20059;-64
2023/09/18 10:18:08;;;;;;;2.55;1.42;;;20.00;99.90;;;;;;4971673;28;20050;-65
2023/09/18 10:20:41;;;;;;;21.52;1.45;;;20.20;99.90;;;;;;4968441;28;20047;-64
2023/09/18 10:23:11;;;;;;;0.47;0.45;;;20.20;99.90;;;;;;4973682;28;20043;-64
2023/09/18 10:25:38;;;;;;;0.63;0.63;;;20.10;99.90;;;;;;4971102;28;20093;-64
2023/09/18 10:28:05;;;;;;;1.38;0.63;;;20.20;99.90;;;;;;4973237;28;20042;-64
2023/09/18 10:30:34;;;;;;;0.00;0.00;;;20.10;99.90;;;;;;4973405;28;20049;-65
2023/09/18 10:33:01;;;;;;;0.68;0.50;;;20.30;99.90;;;;;;4972916;28;20046;-65
2023/09/18 10:35:27;;;;;;;0.63;0.63;;;20.30;99.90;;;;;;4954005;28;20062;-65
2023/09/18 10:37:54;;;;;;;0.50;0.50;;;20.20;99.90;;;;;;4972660;28;20074;-64
2023/09/18 10:40:22;;;;;;;0.57;0.57;;;20.10;99.90;;;;;;4973054;28;20049;-65
2023/09/18 10:42:50;;;;;;;0.05;0.05;;;20.00;99.90;;;;;;4971705;28;20050;-64
2023/09/18 10:45:16;;;;;;;1.08;1.08;;;20.00;99.90;;;;;;4972226;28;20050;-65
2023/09/18 10:47:47;;;;;;;1.05;0.95;;;20.20;99.90;;;;;;4947742;28;20065;-65
2023/09/18 10:50:23;;;;;;;0.00;0.00;;;20.70;99.90;;;;;;4973168;28;20407;-64
2023/09/18 10:52:49;;;;;;;0.32;0.32;;;21.00;99.90;;;;;;4956081;28;20053;-65
2023/09/18 10:55:16;;;;;;;1.25;1.15;;;21.30;99.90;;;;;;4972753;28;20050;-65
2023/09/18 10:57:52;;;;;;;0.28;0.28;;;21.60;99.90;;;;;;4971393;28;20470;-65
2023/09/18 11:00:22;;;;;;;4.95;2.03;;;21.90;99.90;;;;;;4971173;28;20126;-66
2023/09/18 11:02:51;;;;;;;0.15;0.15;;;21.90;99.90;;;;;;4971454;28;20043;-65
2023/09/18 11:05:34;;;;;;;1.27;1.00;;;22.10;99.90;;;;;;4970824;28;20518;-65
2023/09/18 11:08:35;;;;;;;0.32;0.30;;;22.40;99.90;;;;;;4972838;28;20122;-65
2023/09/18 11:11:11;;;;;;;0.10;0.10;;;22.60;99.90;;;;;;4971203;28;20125;-65
2023/09/18 11:13:45;;;;;;;1.02;0.93;;;22.80;99.90;;;;;;4972679;28;20051;-65
2023/09/18 11:16:25;;;;;;;0.20;0.20;;;22.90;99.90;;;;;;4955842;28;20085;-65
2023/09/18 11:18:54;;;;;;;0.00;0.00;;;23.10;99.90;;;;;;4973001;28;20047;-65
2023/09/18 11:21:28;;;;;;;0.00;0.00;;;23.00;99.90;;;;;;4970615;28;20046;-65
2023/09/18 11:24:17;;;;;;;0.40;0.40;;;22.80;99.90;;;;;;4972801;28;20039;-65
2023/09/18 11:26:45;;;;;;;0.20;0.20;;;22.60;99.90;;;;;;4966000;28;20047;-65
2023/09/18 11:29:13;;;;;;;0.90;0.75;;;22.60;99.90;;;;;;4954584;28;20395;-65
2023/09/18 11:31:46;;;;;;;2.45;0.63;;;22.30;99.90;;;;;;4972801;28;20397;-65
2023/09/18 11:34:34;;;;;;;0.15;0.15;;;22.80;99.90;;;;;;4970262;28;20047;-65
2023/09/18 11:37:03;;;;;;;0.50;0.47;;;22.40;99.90;;;;;;4968886;28;20042;-65
2023/09/18 11:39:39;;;;;;;0.35;0.25;;;22.60;99.90;;;;;;4972643;28;20047;-65
2023/09/18 11:42:09;;;;;;;0.00;0.00;;;22.70;99.90;;;;;;4972030;28;20039;-65
2023/09/18 11:44:36;;;;;;;0.10;0.10;;;22.60;99.90;;;;;;4971028;28;20130;-65
2023/09/18 11:47:04;;;;;;;1.90;1.02;;;22.20;99.90;;;;;;4972303;28;20062;-64
2023/09/18 11:49:32;;;;;;;6.60;0.65;;;21.90;99.90;;;;;;4972124;28;20073;-64
2023/09/18 11:52:01;;;;;;;0.00;0.00;;;21.90;99.90;;;;;;4971506;28;20043;-64
2023/09/18 11:54:29;;;;;;;1.55;0.90;;;21.80;99.90;;;;;;4971750;28;20057;-64
2023/09/18 11:56:54;;;;;;;0.03;0.03;;;22.20;99.90;;;;;;4971764;28;20121;-65
2023/09/18 11:59:35;;;;;;;0.30;0.30;;;22.20;99.90;;;;;;4972894;28;20511;-65
2023/09/18 12:02:05;;;;;;;0.20;0.20;;;22.00;99.90;;;;;;4960636;28;20076;-65
2023/09/18 12:04:32;;;;;;;0.00;0.00;;;22.40;99.90;;;;;;4971972;28;20054;-65
2023/09/18 12:07:03;;;;;;;0.20;0.13;;;22.40;99.90;;;;;;4975715;28;20074;-65
2023/09/18 12:09:32;;;;;;;0.68;0.55;;;22.30;99.90;;;;;;4973875;28;20136;-65
2023/09/18 12:12:03;;;;;;;3.20;1.73;;;22.60;99.90;;;;;;4975794;28;20046;-65
2023/09/18 12:14:31;;;;;;;0.10;0.10;;;22.30;99.90;;;;;;4976027;28;20054;-65
2023/09/18 12:16:57;;;;;;;1.60;0.68;;;22.30;99.90;;;;;;4982297;28;20105;-65
2023/09/18 12:19:23;;;;;;;0.00;0.00;;;22.00;99.90;;;;;;4974260;28;20039;-65
2023/09/18 12:21:49;;;;;;;0.82;0.82;;;21.80;99.90;;;;;;4975923;28;20142;-65
2023/09/18 12:24:24;;;;;;;0.00;0.00;;;21.70;99.90;;;;;;4956168;28;20133;-64
2023/09/18 12:26:52;;;;;;;0.20;0.20;;;22.10;99.90;;;;;;4975740;28;20042;-65
2023/09/18 12:29:18;;;;;;;0.50;0.50;;;22.70;99.90;;;;;;4975704;28;20482;-66
2023/09/18 12:31:47;;;;;;;0.35;0.30;;;23.00;99.90;;;;;;4973395;28;20042;-65
2023/09/18 12:34:21;;;;;;;0.10;0.10;;;23.40;99.90;;;;;;4975485;28;20054;-65
2023/09/18 12:36:47;;;;;;;0.05;0.05;;;23.60;99.90;;;;;;4973911;28;20053;-64
2023/09/18 12:39:16;;;;;;;0.03;0.03;;;23.00;99.90;;;;;;4974939;28;20038;-65
2023/09/18 12:41:47;;;;;;;0.35;0.35;;;22.60;99.90;;;;;;4975581;28;20039;-65
2023/09/18 12:44:16;;;;;;;0.28;0.28;;;22.30;99.90;;;;;;4973225;28;20039;-65
2023/09/18 12:46:42;;;;;;;0.38;0.38;;;22.20;99.90;;;;;;4966751;28;20055;-65
2023/09/18 12:49:27;;;;;;;0.52;0.52;;;22.00;99.90;;;;;;4958154;28;20049;-65
2023/09/18 12:51:56;;;;;;;0.10;0.10;;;21.80;99.90;;;;;;4954890;28;20058;-65